Accueil
METAR-TAF:

METAR-TAF

Aéroports :

Twin County Airport

Galax / Hillsville, Virginie, États-Unis

latitude: 36-46N, longitude: 080-49W, altitude: 834 m

Observation

Le bulletin a été fait il y a 12 minutes, à 16:35 UTC
Vent 4 kt de sud-ouest
Température 2°C
Humidité 51%
Pression 1025 hPa
Visibilité: 16.1 km
Ciel clair

METAR: KHLX 141635Z AUTO 22004KT 10SM CLR 02/M07 A3026 RMK AO2 T00211074

Heure: 11:47 (16:47 UTC)


TAF: absent

Observations et prévisions météorologiques de plus de 4000 aéroports (messages METAR et TAF).

Les stations disponibles sont représentées par des disques jaunes et rouges sur la carte.

Passer la souris dessus pour voir le nom de la station.

Cliquer dessus pour voir les observations et prévisions météorologiques.

Pour changer de carte: cliquez sur les boutons verts avec une croix noire pour zoomer, sur le bouton vert avec un tiret pour effectuer un zoom arrière, ou sur les flèches vertes pour les cartes adjacentes.


METAR-TAF: